createdAt,value
2022-08-25T00:00:44.999Z,15.70
2022-08-25T00:03:47.661Z,15.57
2022-08-25T00:06:52.789Z,15.43
2022-08-25T00:09:55.529Z,15.15
2022-08-25T00:12:58.094Z,17.27
2022-08-25T00:16:00.989Z,18.57
2022-08-25T00:19:10.722Z,18.88
2022-08-25T00:22:13.138Z,16.05
2022-08-25T00:25:16.388Z,16.55
2022-08-25T00:28:19.175Z,16.57
2022-08-25T00:31:23.447Z,17.20
2022-08-25T00:34:40.623Z,18.38
2022-08-25T00:37:42.973Z,17.95
2022-08-25T00:40:46.166Z,18.70
2022-08-25T00:43:52.732Z,17.20
2022-08-25T00:46:58.607Z,15.30
2022-08-25T00:50:03.016Z,16.08
2022-08-25T00:53:08.509Z,17.45
2022-08-25T00:56:13.192Z,16.30
2022-08-25T00:59:16.528Z,18.37
2022-08-25T01:02:18.981Z,17.67
2022-08-25T01:05:21.457Z,16.33
2022-08-25T01:08:28.953Z,15.52
2022-08-25T01:11:31.730Z,16.33
2022-08-25T01:14:35.003Z,16.80
2022-08-25T01:17:53.232Z,19.30
2022-08-25T01:20:57.561Z,20.90
2022-08-25T01:24:01.054Z,21.98
2022-08-25T01:27:04.301Z,20.30
2022-08-25T01:30:07.063Z,21.03
2022-08-25T01:33:11.276Z,20.50
2022-08-25T01:36:18.452Z,18.65
2022-08-25T01:39:21.751Z,18.05
2022-08-25T01:42:29.102Z,16.83
2022-08-25T01:45:31.463Z,16.47
2022-08-25T01:48:33.922Z,18.10
2022-08-25T01:51:45.496Z,17.42
2022-08-25T01:54:47.890Z,16.10
2022-08-25T01:57:50.358Z,16.75
2022-08-25T02:00:55.882Z,17.63
2022-08-25T02:03:58.460Z,18.83
2022-08-25T02:07:03.317Z,19.48
2022-08-25T02:10:07.503Z,18.60
2022-08-25T02:13:10.442Z,17.65
2022-08-25T02:16:20.634Z,17.77
2022-08-25T02:19:24.688Z,18.77
2022-08-25T02:22:27.114Z,21.67
2022-08-25T02:25:30.203Z,22.58
2022-08-25T02:28:33.289Z,20.75
2022-08-25T02:31:36.480Z,20.37
2022-08-25T02:34:41.454Z,20.27
2022-08-25T02:37:44.153Z,22.33
2022-08-25T02:40:46.551Z,22.08
2022-08-25T02:43:49.562Z,22.38
2022-08-25T02:46:52.017Z,21.80
2022-08-25T02:49:55.620Z,23.90
2022-08-25T02:52:58.045Z,21.92
2022-08-25T02:56:00.556Z,22.38
2022-08-25T02:59:04.058Z,21.75
2022-08-25T03:02:06.522Z,24.07
2022-08-25T03:05:10.454Z,20.93
2022-08-25T03:08:13.325Z,19.15
2022-08-25T03:11:15.701Z,20.58
2022-08-25T03:14:18.436Z,20.15
2022-08-25T03:17:20.922Z,19.70
2022-08-25T03:20:25.100Z,17.70
2022-08-25T03:23:27.459Z,18.95
2022-08-25T03:26:48.443Z,19.73
2022-08-25T03:29:51.176Z,18.92
2022-08-25T03:32:53.862Z,21.43
2022-08-25T03:35:56.667Z,20.10
2022-08-25T03:39:00.469Z,20.00
2022-08-25T03:42:04.522Z,19.88
2022-08-25T03:45:08.168Z,19.75
2022-08-25T03:48:10.940Z,18.40
2022-08-25T03:51:19.105Z,20.97
2022-08-25T03:54:25.068Z,20.88
2022-08-25T03:57:27.407Z,19.83
2022-08-25T04:00:29.912Z,19.73
2022-08-25T04:03:32.412Z,20.17
2022-08-25T04:06:34.997Z,20.93
2022-08-25T04:09:37.442Z,20.77
2022-08-25T04:12:39.988Z,21.77
2022-08-25T04:15:43.941Z,21.75
2022-08-25T04:18:47.751Z,20.47
2022-08-25T04:21:50.842Z,20.10
2022-08-25T04:24:53.374Z,21.15
2022-08-25T04:27:55.813Z,22.35
2022-08-25T04:30:58.232Z,22.60
2022-08-25T04:34:04.995Z,24.70
2022-08-25T04:37:27.345Z,24.83
2022-08-25T04:40:29.744Z,25.38
2022-08-25T04:43:34.306Z,23.48
2022-08-25T04:46:36.889Z,21.02
2022-08-25T04:49:39.611Z,19.37
2022-08-25T04:52:42.470Z,19.73
2022-08-25T04:55:46.693Z,20.67
2022-08-25T04:58:49.643Z,18.45
2022-08-25T05:01:52.163Z,20.27
2022-08-25T05:04:55.468Z,19.90
2022-08-25T05:07:58.684Z,20.87
2022-08-25T05:11:17.337Z,22.98
2022-08-25T05:14:25.557Z,20.60
2022-08-25T05:17:29.098Z,19.52
2022-08-25T05:20:31.888Z,22.37
2022-08-25T05:23:35.104Z,24.57
2022-08-25T05:26:38.324Z,25.00
2022-08-25T05:29:41.795Z,23.95
2022-08-25T05:32:44.935Z,23.52
2022-08-25T05:35:47.270Z,22.73
2022-08-25T05:38:50.267Z,23.70
2022-08-25T05:41:52.681Z,22.73
2022-08-25T05:44:55.531Z,22.45
2022-08-25T05:47:58.215Z,22.63
2022-08-25T05:51:02.688Z,22.33
2022-08-25T05:54:05.453Z,21.83
2022-08-25T05:57:08.203Z,22.20
2022-08-25T06:00:11.297Z,19.85
2022-08-25T06:03:17.714Z,20.40
2022-08-25T06:06:22.536Z,21.97
2022-08-25T06:09:24.900Z,20.43
2022-08-25T06:12:27.263Z,19.17
2022-08-25T06:15:29.735Z,19.67
2022-08-25T06:18:32.228Z,17.70
2022-08-25T06:21:34.712Z,17.97
2022-08-25T06:24:37.184Z,16.07
2022-08-25T06:27:41.515Z,18.10
2022-08-25T06:30:43.948Z,17.35
2022-08-25T06:33:46.709Z,17.30
2022-08-25T06:36:50.519Z,16.30
2022-08-25T06:39:53.032Z,16.20
2022-08-25T06:42:55.377Z,15.38
2022-08-25T06:45:58.032Z,14.57
2022-08-25T06:49:00.894Z,14.82
2022-08-25T06:52:04.854Z,14.90
2022-08-25T06:55:07.620Z,13.43
2022-08-25T06:58:11.199Z,13.98
2022-08-25T07:01:22.965Z,13.75
2022-08-25T07:04:28.723Z,13.38
2022-08-25T07:07:43.698Z,13.25
2022-08-25T07:10:47.967Z,12.67
2022-08-25T07:13:51.141Z,12.18
2022-08-25T07:16:53.589Z,11.15
2022-08-25T07:19:57.582Z,10.98
2022-08-25T07:23:00.237Z,11.47
2022-08-25T07:26:37.650Z,11.47
2022-08-25T07:29:42.339Z,10.60
2022-08-25T07:32:45.177Z,9.07
2022-08-25T07:35:47.601Z,9.18
2022-08-25T07:38:53.441Z,8.10
2022-08-25T07:41:58.081Z,7.73
2022-08-25T07:45:00.472Z,8.18
2022-08-25T07:48:10.007Z,7.60
2022-08-25T07:51:14.364Z,7.78
2022-08-25T07:54:17.235Z,7.68
2022-08-25T07:57:19.863Z,7.47
2022-08-25T08:00:22.797Z,7.50
2022-08-25T08:03:44.609Z,7.13
2022-08-25T08:06:48.154Z,6.22
2022-08-25T08:10:04.716Z,6.22
2022-08-25T08:13:17.969Z,6.67
2022-08-25T08:16:24.133Z,6.38
2022-08-25T08:19:26.612Z,5.93
2022-08-25T08:22:29.393Z,6.78
2022-08-25T08:25:31.735Z,6.28
2022-08-25T08:28:34.817Z,5.10
2022-08-25T08:31:37.159Z,5.43
2022-08-25T08:34:41.538Z,5.95
2022-08-25T08:37:43.917Z,6.20
2022-08-25T08:41:28.346Z,5.70
2022-08-25T08:45:09.737Z,5.10
2022-08-25T08:48:39.927Z,5.60
2022-08-25T08:51:54.165Z,5.55
2022-08-25T08:55:02.050Z,5.70
2022-08-25T08:58:12.979Z,5.28
2022-08-25T09:01:24.438Z,5.47
2022-08-25T09:04:39.307Z,5.47
2022-08-25T09:07:57.524Z,5.13
2022-08-25T09:11:33.172Z,4.93
2022-08-25T09:14:56.839Z,4.93
2022-08-25T09:18:08.609Z,4.50
2022-08-25T09:21:21.372Z,4.75
2022-08-25T09:24:26.367Z,4.80
2022-08-25T09:27:41.026Z,4.97
2022-08-25T09:30:49.926Z,4.63
2022-08-25T09:33:57.365Z,4.57
2022-08-25T09:37:01.358Z,4.72
2022-08-25T09:40:04.596Z,4.88
2022-08-25T09:43:33.189Z,5.03
2022-08-25T09:46:35.626Z,4.95
2022-08-25T09:49:44.541Z,4.63
2022-08-25T09:52:47.114Z,4.30
2022-08-25T09:56:07.494Z,4.72
2022-08-25T09:59:35.452Z,4.57
2022-08-25T10:02:39.119Z,4.40
2022-08-25T10:05:59.010Z,4.33
2022-08-25T10:09:06.583Z,4.57
2022-08-25T10:12:27.909Z,4.80
2022-08-25T10:15:36.088Z,4.32
2022-08-25T10:18:38.750Z,4.90
2022-08-25T10:21:43.059Z,4.80
2022-08-25T10:24:46.426Z,4.82
2022-08-25T10:28:02.251Z,4.60
2022-08-25T10:31:17.241Z,4.53
2022-08-25T10:34:44.426Z,4.53
2022-08-25T10:38:10.528Z,4.10
2022-08-25T10:41:25.919Z,4.55
2022-08-25T10:45:07.120Z,4.13
2022-08-25T10:48:31.329Z,4.60
2022-08-25T10:51:56.364Z,4.20
2022-08-25T10:55:34.122Z,4.07
2022-08-25T10:58:45.356Z,3.47
2022-08-25T11:02:11.903Z,3.90
2022-08-25T11:05:53.157Z,4.32
2022-08-25T11:09:00.697Z,4.40
2022-08-25T11:12:30.929Z,3.90
2022-08-25T11:16:06.548Z,3.70
2022-08-25T11:19:20.522Z,4.30
2022-08-25T11:22:32.393Z,4.70
2022-08-25T11:25:42.029Z,4.22
2022-08-25T11:29:04.636Z,4.40
2022-08-25T11:32:07.443Z,4.20
2022-08-25T11:35:16.591Z,4.07
2022-08-25T11:38:47.918Z,4.53
2022-08-25T11:41:53.509Z,4.30
2022-08-25T11:45:24.543Z,4.00
2022-08-25T11:49:01.723Z,3.97
2022-08-25T11:52:34.883Z,4.00
2022-08-25T11:55:37.465Z,4.50
2022-08-25T11:58:50.849Z,4.25
2022-08-25T12:01:56.309Z,4.47
2022-08-25T12:04:58.915Z,4.53
2022-08-25T12:08:22.705Z,4.65
2022-08-25T12:11:49.020Z,3.88
2022-08-25T12:14:51.848Z,4.60
2022-08-25T12:18:18.819Z,4.30
2022-08-25T12:21:32.680Z,5.10
2022-08-25T12:24:47.690Z,4.95
2022-08-25T12:28:14.444Z,4.50
2022-08-25T12:31:40.218Z,3.95
2022-08-25T12:35:15.867Z,4.60
2022-08-25T12:38:45.443Z,4.80
2022-08-25T12:42:26.051Z,4.45
2022-08-25T12:45:37.257Z,4.65
2022-08-25T12:49:12.001Z,4.68
2022-08-25T12:52:27.849Z,4.00
2022-08-25T12:55:30.605Z,3.90
2022-08-25T12:59:00.104Z,3.90
2022-08-25T13:02:35.179Z,4.80
2022-08-25T13:06:11.481Z,4.75
2022-08-25T13:09:48.314Z,5.07
2022-08-25T13:12:59.759Z,4.70
2022-08-25T13:16:08.859Z,5.43
2022-08-25T13:19:19.065Z,4.68
2022-08-25T13:22:23.631Z,4.82
2022-08-25T13:25:32.191Z,5.28
2022-08-25T13:28:38.047Z,5.43
2022-08-25T13:31:57.532Z,5.20
2022-08-25T13:35:19.706Z,5.32
2022-08-25T13:38:22.690Z,5.63
2022-08-25T13:41:29.260Z,5.50
2022-08-25T13:44:35.531Z,4.60
2022-08-25T13:47:45.411Z,4.82
2022-08-25T13:50:51.741Z,5.85
2022-08-25T13:54:01.323Z,5.32
2022-08-25T13:57:22.035Z,5.85
2022-08-25T14:00:45.336Z,5.30
2022-08-25T14:03:48.079Z,5.57
2022-08-25T14:07:21.083Z,4.57
2022-08-25T14:10:38.641Z,4.65
2022-08-25T14:13:45.472Z,5.32
2022-08-25T14:16:51.126Z,5.17
2022-08-25T14:19:57.552Z,5.13
2022-08-25T14:23:22.231Z,5.25
2022-08-25T14:26:26.650Z,5.50
2022-08-25T14:29:30.041Z,5.30
2022-08-25T14:32:32.469Z,5.50
2022-08-25T14:35:35.559Z,5.13
2022-08-25T14:38:39.116Z,5.10
2022-08-25T14:41:52.586Z,5.20
2022-08-25T14:44:56.194Z,5.40
2022-08-25T14:48:05.410Z,5.57
2022-08-25T14:51:14.414Z,5.10
2022-08-25T14:54:18.698Z,5.60
2022-08-25T14:57:21.615Z,4.55
2022-08-25T15:00:26.714Z,5.30
2022-08-25T15:03:39.655Z,5.70
2022-08-25T15:06:43.470Z,5.50
2022-08-25T15:09:46.037Z,5.10
2022-08-25T15:12:54.029Z,4.90
2022-08-25T15:15:58.024Z,5.30
2022-08-25T15:19:01.452Z,5.03
2022-08-25T15:22:07.520Z,4.72
2022-08-25T15:25:12.564Z,5.70
2022-08-25T15:28:17.218Z,4.60
2022-08-25T15:31:21.250Z,5.10
2022-08-25T15:34:23.882Z,4.93
2022-08-25T15:37:27.001Z,4.40
2022-08-25T15:40:29.850Z,4.80
2022-08-25T15:43:33.026Z,4.80
2022-08-25T15:46:36.748Z,4.05
2022-08-25T15:49:40.421Z,4.23
2022-08-25T15:52:47.541Z,4.15
2022-08-25T15:55:52.365Z,4.20
2022-08-25T15:58:57.232Z,4.30
2022-08-25T16:02:00.455Z,4.20
2022-08-25T16:05:03.526Z,4.60
2022-08-25T16:08:09.291Z,4.07
2022-08-25T16:11:24.875Z,4.57
2022-08-25T16:14:27.623Z,4.47
2022-08-25T16:17:30.367Z,4.38
2022-08-25T16:20:34.799Z,4.13
2022-08-25T16:23:37.594Z,5.35
2022-08-25T16:26:45.108Z,4.60
2022-08-25T16:29:50.705Z,5.05
2022-08-25T16:32:53.036Z,4.55
2022-08-25T16:36:11.614Z,4.53
2022-08-25T16:39:13.977Z,4.30
2022-08-25T16:42:16.530Z,4.40
2022-08-25T16:45:19.715Z,4.70
2022-08-25T16:48:22.257Z,4.30
2022-08-25T16:51:25.668Z,4.60
2022-08-25T16:54:51.091Z,4.88
2022-08-25T16:58:02.213Z,5.13
2022-08-25T17:01:12.696Z,4.30
2022-08-25T17:04:15.188Z,4.85
2022-08-25T17:07:23.685Z,4.67
2022-08-25T17:10:28.572Z,4.88
2022-08-25T17:13:31.857Z,4.63
2022-08-25T17:16:35.791Z,4.60
2022-08-25T17:19:38.356Z,4.88
2022-08-25T17:22:43.428Z,4.80
2022-08-25T17:25:45.818Z,4.75
2022-08-25T17:28:48.435Z,4.90
2022-08-25T17:31:51.621Z,4.63
2022-08-25T17:34:54.360Z,5.28
2022-08-25T17:37:56.751Z,4.57
2022-08-25T17:41:01.790Z,4.97
2022-08-25T17:44:04.771Z,4.70
2022-08-25T17:47:07.270Z,5.20
2022-08-25T17:50:10.199Z,5.05
2022-08-25T17:53:13.552Z,5.20
2022-08-25T17:56:21.232Z,5.05
2022-08-25T17:59:23.561Z,5.20
2022-08-25T18:02:26.360Z,5.20
2022-08-25T18:05:31.978Z,4.95
2022-08-25T18:08:36.246Z,4.73
2022-08-25T18:11:40.570Z,5.68
2022-08-25T18:14:43.344Z,6.35
2022-08-25T18:17:48.603Z,6.25
2022-08-25T18:20:51.187Z,6.00
2022-08-25T18:23:55.910Z,6.10
2022-08-25T18:26:59.353Z,6.00
2022-08-25T18:30:03.365Z,5.28
2022-08-25T18:33:06.196Z,4.65
2022-08-25T18:36:09.808Z,4.85
2022-08-25T18:39:34.541Z,5.00
2022-08-25T18:42:37.508Z,4.97
2022-08-25T18:45:44.890Z,5.13
2022-08-25T18:48:47.506Z,5.25
2022-08-25T18:51:49.960Z,5.20
2022-08-25T18:54:53.066Z,5.70
2022-08-25T18:57:56.945Z,5.90
2022-08-25T19:01:00.862Z,4.78
2022-08-25T19:04:03.810Z,5.30
2022-08-25T19:07:07.951Z,4.88
2022-08-25T19:10:10.559Z,5.50
2022-08-25T19:13:14.945Z,5.53
2022-08-25T19:16:34.511Z,5.30
2022-08-25T19:19:36.890Z,5.47
2022-08-25T19:22:41.984Z,5.65
2022-08-25T19:25:44.682Z,5.20
2022-08-25T19:28:50.864Z,5.30
2022-08-25T19:31:53.342Z,5.63
2022-08-25T19:34:56.124Z,5.30
2022-08-25T19:38:00.001Z,5.50
2022-08-25T19:41:09.427Z,5.53
2022-08-25T19:44:17.774Z,5.65
2022-08-25T19:47:20.293Z,5.10
2022-08-25T19:50:24.003Z,5.65
2022-08-25T19:53:26.357Z,5.75
2022-08-25T19:56:31.050Z,5.30
2022-08-25T19:59:42.795Z,5.15
2022-08-25T20:02:46.064Z,6.25
2022-08-25T20:05:49.119Z,5.28
2022-08-25T20:08:59.282Z,5.63
2022-08-25T20:12:06.218Z,5.50
2022-08-25T20:15:09.708Z,5.65
2022-08-25T20:18:12.047Z,5.70
2022-08-25T20:21:14.509Z,5.70
2022-08-25T20:24:35.368Z,5.68
2022-08-25T20:27:43.332Z,5.90
2022-08-25T20:30:46.201Z,5.70
2022-08-25T20:33:48.629Z,5.65
2022-08-25T20:36:52.879Z,5.60
2022-08-25T20:39:55.491Z,6.15
2022-08-25T20:43:01.956Z,6.37
2022-08-25T20:46:06.759Z,5.60
2022-08-25T20:49:09.851Z,5.68
2022-08-25T20:52:12.216Z,6.70
2022-08-25T20:55:18.846Z,6.10
2022-08-25T20:58:21.722Z,5.97
2022-08-25T21:01:37.915Z,6.07
2022-08-25T21:04:48.901Z,6.00
2022-08-25T21:07:52.787Z,6.22
2022-08-25T21:10:55.134Z,6.00
2022-08-25T21:14:01.624Z,6.33
2022-08-25T21:17:12.066Z,6.57
2022-08-25T21:20:15.212Z,6.15
2022-08-25T21:23:17.728Z,6.35
2022-08-25T21:26:23.384Z,6.07
2022-08-25T21:29:28.565Z,6.20
2022-08-25T21:32:31.231Z,6.50
2022-08-25T21:35:33.841Z,5.97
2022-08-25T21:38:39.953Z,6.00
2022-08-25T21:41:45.540Z,6.35
2022-08-25T21:44:48.056Z,6.17
2022-08-25T21:47:52.482Z,6.45
2022-08-25T21:51:28.781Z,7.07
2022-08-25T21:54:31.582Z,6.15
2022-08-25T21:57:36.562Z,6.10
2022-08-25T22:00:39.206Z,6.73
2022-08-25T22:03:42.464Z,6.47
2022-08-25T22:06:49.610Z,6.88
2022-08-25T22:09:53.064Z,6.00
2022-08-25T22:12:56.050Z,6.60
2022-08-25T22:15:59.077Z,6.23
2022-08-25T22:19:02.892Z,6.35
2022-08-25T22:22:06.861Z,6.00
2022-08-25T22:25:09.375Z,6.28
2022-08-25T22:28:14.508Z,6.57
2022-08-25T22:31:20.907Z,6.40
2022-08-25T22:34:30.675Z,6.55
2022-08-25T22:37:35.078Z,6.30
2022-08-25T22:40:39.700Z,6.78
2022-08-25T22:43:43.105Z,6.63
2022-08-25T22:46:45.508Z,7.13
2022-08-25T22:49:48.703Z,6.90
2022-08-25T22:52:51.303Z,6.93
2022-08-25T22:55:53.682Z,6.72
2022-08-25T22:59:04.962Z,7.35
2022-08-25T23:02:08.468Z,6.83
2022-08-25T23:05:12.571Z,7.00
2022-08-25T23:08:15.068Z,7.32
2022-08-25T23:11:31.779Z,7.35
2022-08-25T23:14:38.504Z,6.80
2022-08-25T23:17:44.756Z,6.67
2022-08-25T23:21:24.110Z,6.90
2022-08-25T23:24:30.117Z,7.10
2022-08-25T23:27:32.810Z,6.60
2022-08-25T23:30:39.007Z,6.40
2022-08-25T23:33:41.549Z,6.73
2022-08-25T23:36:44.280Z,6.90
2022-08-25T23:39:49.452Z,7.38
2022-08-25T23:42:52.318Z,7.13
2022-08-25T23:45:54.745Z,6.50
2022-08-25T23:48:58.273Z,7.37
2022-08-25T23:52:02.171Z,7.63
2022-08-25T23:55:04.899Z,7.25
2022-08-25T23:58:07.601Z,7.05
